sensor_id;sensor_type;location;lat;lon;timestamp;pressure;altitude;pressure_sealevel;temperature;humidity
77572;BME280;67214;47.454;18.966;2023-06-22T00:02:23;100409.19;;;22.73;65.12
77572;BME280;67214;47.454;18.966;2023-06-22T00:04:50;100405.31;;;22.71;66.07
77572;BME280;67214;47.454;18.966;2023-06-22T00:07:18;100415.51;;;22.69;66.84
77572;BME280;67214;47.454;18.966;2023-06-22T00:09:45;100419.72;;;22.67;65.99
77572;BME280;67214;47.454;18.966;2023-06-22T00:12:13;100409.26;;;22.68;66.05
77572;BME280;67214;47.454;18.966;2023-06-22T00:14:40;100421.91;;;22.68;66.33
77572;BME280;67214;47.454;18.966;2023-06-22T00:17:08;100435.38;;;22.61;66.42
77572;BME280;67214;47.454;18.966;2023-06-22T00:19:35;100438.52;;;22.54;68.18
77572;BME280;67214;47.454;18.966;2023-06-22T00:22:04;100433.57;;;22.47;69.44
77572;BME280;67214;47.454;18.966;2023-06-22T00:24:32;100411.90;;;22.41;70.12
77572;BME280;67214;47.454;18.966;2023-06-22T00:26:59;100411.45;;;22.37;70.29
77572;BME280;67214;47.454;18.966;2023-06-22T00:29:27;100417.28;;;22.30;71.34
77572;BME280;67214;47.454;18.966;2023-06-22T00:31:54;100416.78;;;22.20;71.78
77572;BME280;67214;47.454;18.966;2023-06-22T00:34:21;100429.06;;;22.12;71.86
77572;BME280;67214;47.454;18.966;2023-06-22T00:36:49;100429.81;;;22.06;72.13
77572;BME280;67214;47.454;18.966;2023-06-22T00:39:18;100425.97;;;22.04;71.82
77572;BME280;67214;47.454;18.966;2023-06-22T00:41:45;100428.97;;;22.05;72.23
77572;BME280;67214;47.454;18.966;2023-06-22T00:44:12;100425.97;;;22.04;71.61
77572;BME280;67214;47.454;18.966;2023-06-22T00:46:40;100434.92;;;22.05;71.76
77572;BME280;67214;47.454;18.966;2023-06-22T00:49:07;100439.78;;;22.05;72.66
77572;BME280;67214;47.454;18.966;2023-06-22T00:51:35;100425.13;;;22.04;72.37
77572;BME280;67214;47.454;18.966;2023-06-22T00:54:05;100433.08;;;22.01;72.11
77572;BME280;67214;47.454;18.966;2023-06-22T00:56:32;100429.03;;;22.01;72.16
77572;BME280;67214;47.454;18.966;2023-06-22T00:59:02;100426.54;;;22.00;72.58
77572;BME280;67214;47.454;18.966;2023-06-22T01:01:29;100430.95;;;21.97;73.01
77572;BME280;67214;47.454;18.966;2023-06-22T01:03:57;100425.96;;;21.90;73.58
77572;BME280;67214;47.454;18.966;2023-06-22T01:06:29;100413.36;;;21.86;73.91
77572;BME280;67214;47.454;18.966;2023-06-22T01:09:06;100410.31;;;21.74;74.42
77572;BME280;67214;47.454;18.966;2023-06-22T01:11:44;100419.16;;;21.68;74.76
77572;BME280;67214;47.454;18.966;2023-06-22T01:14:27;100411.05;;;21.68;75.00
77572;BME280;67214;47.454;18.966;2023-06-22T01:16:55;100417.30;;;21.69;75.05
77572;BME280;67214;47.454;18.966;2023-06-22T01:19:28;100407.39;;;21.65;75.11
77572;BME280;67214;47.454;18.966;2023-06-22T01:21:55;100414.34;;;21.64;75.71
77572;BME280;67214;47.454;18.966;2023-06-22T01:24:47;100404.95;;;21.60;76.10
77572;BME280;67214;47.454;18.966;2023-06-22T01:29:57;100406.46;;;21.48;76.36
77572;BME280;67214;47.454;18.966;2023-06-22T01:32:29;100405.34;;;21.42;76.47
77572;BME280;67214;47.454;18.966;2023-06-22T01:35:01;100403.02;;;21.39;76.68
77572;BME280;67214;47.454;18.966;2023-06-22T01:37:29;100408.09;;;21.38;77.02
77572;BME280;67214;47.454;18.966;2023-06-22T01:39:59;100402.41;;;21.33;77.03
77572;BME280;67214;47.454;18.966;2023-06-22T01:42:26;100404.47;;;21.31;77.04
77572;BME280;67214;47.454;18.966;2023-06-22T01:44:55;100393.34;;;21.30;77.13
77572;BME280;67214;47.454;18.966;2023-06-22T01:47:24;100385.63;;;21.27;77.38
77572;BME280;67214;47.454;18.966;2023-06-22T01:49:52;100394.91;;;21.24;77.47
77572;BME280;67214;47.454;18.966;2023-06-22T01:52:20;100390.91;;;21.20;77.49
77572;BME280;67214;47.454;18.966;2023-06-22T01:54:48;100395.17;;;21.19;77.05
77572;BME280;67214;47.454;18.966;2023-06-22T01:57:15;100397.70;;;21.16;76.78
77572;BME280;67214;47.454;18.966;2023-06-22T01:59:56;100401.95;;;21.15;76.46
77572;BME280;67214;47.454;18.966;2023-06-22T02:02:22;100406.17;;;21.13;76.44
77572;BME280;67214;47.454;18.966;2023-06-22T02:04:58;100406.70;;;21.09;75.50
77572;BME280;67214;47.454;18.966;2023-06-22T02:07:34;100401.30;;;21.09;75.95
77572;BME280;67214;47.454;18.966;2023-06-22T02:10:03;100398.94;;;21.10;75.68
77572;BME280;67214;47.454;18.966;2023-06-22T02:12:33;100407.70;;;21.12;75.93
77572;BME280;67214;47.454;18.966;2023-06-22T02:15:02;100411.08;;;21.10;76.36
77572;BME280;67214;47.454;18.966;2023-06-22T02:17:29;100416.84;;;21.07;76.37
77572;BME280;67214;47.454;18.966;2023-06-22T02:20:00;100410.28;;;21.05;76.70
77572;BME280;67214;47.454;18.966;2023-06-22T02:22:28;100415.00;;;21.03;76.57
77572;BME280;67214;47.454;18.966;2023-06-22T02:24:56;100422.29;;;21.03;77.46
77572;BME280;67214;47.454;18.966;2023-06-22T02:27:24;100418.37;;;21.05;77.76
77572;BME280;67214;47.454;18.966;2023-06-22T02:29:52;100431.43;;;20.98;78.01
77572;BME280;67214;47.454;18.966;2023-06-22T02:32:19;100428.02;;;21.00;77.96
77572;BME280;67214;47.454;18.966;2023-06-22T02:34:47;100425.88;;;20.95;78.26
77572;BME280;67214;47.454;18.966;2023-06-22T02:37:14;100429.49;;;20.87;78.58
77572;BME280;67214;47.454;18.966;2023-06-22T02:39:42;100439.77;;;20.88;78.68
77572;BME280;67214;47.454;18.966;2023-06-22T02:42:09;100438.62;;;20.86;78.29
77572;BME280;67214;47.454;18.966;2023-06-22T02:44:37;100427.04;;;20.82;78.68
77572;BME280;67214;47.454;18.966;2023-06-22T02:47:05;100436.31;;;20.79;78.75
77572;BME280;67214;47.454;18.966;2023-06-22T02:49:34;100444.70;;;20.66;79.39
77572;BME280;67214;47.454;18.966;2023-06-22T02:52:01;100438.44;;;20.69;79.24
77572;BME280;67214;47.454;18.966;2023-06-22T02:54:28;100443.80;;;20.73;79.16
77572;BME280;67214;47.454;18.966;2023-06-22T02:56:56;100437.77;;;20.67;78.84
77572;BME280;67214;47.454;18.966;2023-06-22T02:59:23;100449.39;;;20.68;78.71
77572;BME280;67214;47.454;18.966;2023-06-22T03:01:51;100438.88;;;20.54;79.09
77572;BME280;67214;47.454;18.966;2023-06-22T03:04:19;100439.41;;;20.31;79.96
77572;BME280;67214;47.454;18.966;2023-06-22T03:06:47;100440.47;;;20.18;80.53
77572;BME280;67214;47.454;18.966;2023-06-22T03:09:17;100429.72;;;20.14;80.53
77572;BME280;67214;47.454;18.966;2023-06-22T03:11:45;100424.64;;;20.19;80.55
77572;BME280;67214;47.454;18.966;2023-06-22T03:14:13;100422.94;;;20.22;79.93
77572;BME280;67214;47.454;18.966;2023-06-22T03:16:40;100418.55;;;20.25;79.01
77572;BME280;67214;47.454;18.966;2023-06-22T03:19:07;100434.02;;;20.27;78.72
77572;BME280;67214;47.454;18.966;2023-06-22T03:21:35;100431.16;;;20.28;78.83
77572;BME280;67214;47.454;18.966;2023-06-22T03:24:05;100433.85;;;20.32;78.15
77572;BME280;67214;47.454;18.966;2023-06-22T03:26:33;100435.20;;;20.32;78.26
77572;BME280;67214;47.454;18.966;2023-06-22T03:29:01;100443.95;;;20.30;78.25
77572;BME280;67214;47.454;18.966;2023-06-22T03:31:29;100432.16;;;20.31;78.26
77572;BME280;67214;47.454;18.966;2023-06-22T03:33:56;100430.81;;;20.31;78.32
77572;BME280;67214;47.454;18.966;2023-06-22T03:36:24;100432.05;;;20.21;78.35
77572;BME280;67214;47.454;18.966;2023-06-22T03:38:52;100437.72;;;20.30;78.40
77572;BME280;67214;47.454;18.966;2023-06-22T03:41:19;100435.67;;;20.36;78.60
77572;BME280;67214;47.454;18.966;2023-06-22T03:43:47;100438.53;;;20.34;78.14
77572;BME280;67214;47.454;18.966;2023-06-22T03:46:14;100437.10;;;20.20;78.73
77572;BME280;67214;47.454;18.966;2023-06-22T03:48:42;100431.43;;;20.11;79.30
77572;BME280;67214;47.454;18.966;2023-06-22T03:51:09;100428.02;;;20.21;79.04
77572;BME280;67214;47.454;18.966;2023-06-22T03:53:36;100433.40;;;20.21;79.49
77572;BME280;67214;47.454;18.966;2023-06-22T03:56:04;100433.87;;;20.24;79.57
77572;BME280;67214;47.454;18.966;2023-06-22T03:58:31;100438.14;;;20.15;80.40
77572;BME280;67214;47.454;18.966;2023-06-22T04:00:59;100441.48;;;20.21;80.14
77572;BME280;67214;47.454;18.966;2023-06-22T04:03:27;100439.60;;;20.25;79.96
77572;BME280;67214;47.454;18.966;2023-06-22T04:05:54;100440.08;;;20.33;79.79
77572;BME280;67214;47.454;18.966;2023-06-22T04:08:22;100433.95;;;20.39;79.26
77572;BME280;67214;47.454;18.966;2023-06-22T04:10:49;100437.80;;;20.45;79.17
77572;BME280;67214;47.454;18.966;2023-06-22T04:13:16;100438.84;;;20.39;79.54
77572;BME280;67214;47.454;18.966;2023-06-22T04:15:46;100439.59;;;20.52;78.76
77572;BME280;67214;47.454;18.966;2023-06-22T04:18:13;100431.17;;;20.51;78.95
77572;BME280;67214;47.454;18.966;2023-06-22T04:20:41;100435.98;;;20.60;78.85
77572;BME280;67214;47.454;18.966;2023-06-22T04:23:08;100442.52;;;20.65;78.49
77572;BME280;67214;47.454;18.966;2023-06-22T04:25:36;100446.16;;;20.72;78.33
77572;BME280;67214;47.454;18.966;2023-06-22T04:28:03;100443.89;;;20.80;78.35
77572;BME280;67214;47.454;18.966;2023-06-22T04:30:32;100445.17;;;20.88;78.49
77572;BME280;67214;47.454;18.966;2023-06-22T04:33:00;100446.94;;;20.96;78.04
77572;BME280;67214;47.454;18.966;2023-06-22T04:35:27;100452.09;;;21.05;77.41
77572;BME280;67214;47.454;18.966;2023-06-22T04:37:57;100447.48;;;21.10;77.30
77572;BME280;67214;47.454;18.966;2023-06-22T04:40:25;100462.11;;;21.15;77.40
77572;BME280;67214;47.454;18.966;2023-06-22T04:42:53;100453.13;;;21.23;76.76
77572;BME280;67214;47.454;18.966;2023-06-22T04:45:21;100462.83;;;21.28;76.93
77572;BME280;67214;47.454;18.966;2023-06-22T04:47:48;100466.98;;;21.35;77.37
77572;BME280;67214;47.454;18.966;2023-06-22T04:50:16;100466.39;;;21.43;76.18
77572;BME280;67214;47.454;18.966;2023-06-22T04:52:45;100474.39;;;21.51;76.32
77572;BME280;67214;47.454;18.966;2023-06-22T04:55:13;100473.53;;;21.65;76.10
77572;BME280;67214;47.454;18.966;2023-06-22T04:57:43;100469.10;;;21.68;76.26
77572;BME280;67214;47.454;18.966;2023-06-22T05:00:13;100462.30;;;21.72;75.81
77572;BME280;67214;47.454;18.966;2023-06-22T05:02:42;100472.49;;;21.81;75.14
77572;BME280;67214;47.454;18.966;2023-06-22T05:05:12;100472.14;;;21.84;75.19
77572;BME280;67214;47.454;18.966;2023-06-22T05:07:46;100476.94;;;21.89;75.20
77572;BME280;67214;47.454;18.966;2023-06-22T05:10:17;100477.53;;;21.99;74.90
77572;BME280;67214;47.454;18.966;2023-06-22T05:12:45;100479.95;;;22.08;74.40
77572;BME280;67214;47.454;18.966;2023-06-22T05:15:12;100481.42;;;22.21;73.85
77572;BME280;67214;47.454;18.966;2023-06-22T05:17:42;100487.44;;;22.38;73.60
77572;BME280;67214;47.454;18.966;2023-06-22T05:20:12;100485.66;;;22.45;72.83
77572;BME280;67214;47.454;18.966;2023-06-22T05:22:40;100502.38;;;22.55;73.28
77572;BME280;67214;47.454;18.966;2023-06-22T05:25:10;100508.75;;;22.58;72.16
77572;BME280;67214;47.454;18.966;2023-06-22T05:27:38;100508.44;;;22.68;71.84
77572;BME280;67214;47.454;18.966;2023-06-22T05:30:09;100505.64;;;22.76;71.66
77572;BME280;67214;47.454;18.966;2023-06-22T05:32:38;100506.86;;;22.84;71.23
77572;BME280;67214;47.454;18.966;2023-06-22T05:35:05;100503.12;;;22.85;70.86
77572;BME280;67214;47.454;18.966;2023-06-22T05:37:33;100498.86;;;22.87;70.81
77572;BME280;67214;47.454;18.966;2023-06-22T05:40:01;100509.24;;;22.94;71.07
77572;BME280;67214;47.454;18.966;2023-06-22T05:42:28;100517.84;;;23.04;70.02
77572;BME280;67214;47.454;18.966;2023-06-22T05:44:56;100521.03;;;23.25;71.43
77572;BME280;67214;47.454;18.966;2023-06-22T05:47:25;100507.94;;;23.28;70.90
77572;BME280;67214;47.454;18.966;2023-06-22T05:49:52;100515.28;;;23.45;70.02
77572;BME280;67214;47.454;18.966;2023-06-22T05:52:20;100515.34;;;23.51;69.76
77572;BME280;67214;47.454;18.966;2023-06-22T05:54:47;100513.25;;;23.53;69.25
77572;BME280;67214;47.454;18.966;2023-06-22T05:57:15;100504.41;;;23.73;67.75
77572;BME280;67214;47.454;18.966;2023-06-22T05:59:42;100518.59;;;23.57;69.08
77572;BME280;67214;47.454;18.966;2023-06-22T06:02:10;100518.43;;;23.83;68.14
77572;BME280;67214;47.454;18.966;2023-06-22T06:04:37;100509.45;;;23.99;65.70
77572;BME280;67214;47.454;18.966;2023-06-22T06:07:04;100513.44;;;24.10;65.21
77572;BME280;67214;47.454;18.966;2023-06-22T06:09:32;100506.67;;;24.34;63.72
77572;BME280;67214;47.454;18.966;2023-06-22T06:11:59;100512.14;;;24.47;63.02
77572;BME280;67214;47.454;18.966;2023-06-22T06:14:28;100507.27;;;24.60;61.98
77572;BME280;67214;47.454;18.966;2023-06-22T06:16:56;100514.50;;;24.70;62.37
77572;BME280;67214;47.454;18.966;2023-06-22T06:19:24;100513.23;;;24.79;61.88
77572;BME280;67214;47.454;18.966;2023-06-22T06:21:51;100514.03;;;24.90;60.42
77572;BME280;67214;47.454;18.966;2023-06-22T06:24:18;100505.58;;;25.02;59.95
77572;BME280;67214;47.454;18.966;2023-06-22T06:26:46;100504.30;;;25.11;59.36
77572;BME280;67214;47.454;18.966;2023-06-22T06:29:13;100505.25;;;25.21;57.50
77572;BME280;67214;47.454;18.966;2023-06-22T06:31:42;100495.63;;;25.25;57.53
77572;BME280;67214;47.454;18.966;2023-06-22T06:34:10;100501.48;;;25.55;57.51
77572;BME280;67214;47.454;18.966;2023-06-22T06:36:37;100498.61;;;25.52;56.18
77572;BME280;67214;47.454;18.966;2023-06-22T06:39:05;100501.88;;;25.58;56.65
77572;BME280;67214;47.454;18.966;2023-06-22T06:41:32;100496.10;;;25.64;55.93
77572;BME280;67214;47.454;18.966;2023-06-22T06:43:59;100498.11;;;25.95;56.01
77572;BME280;67214;47.454;18.966;2023-06-22T06:46:27;100494.19;;;26.06;54.38
77572;BME280;67214;47.454;18.966;2023-06-22T06:48:54;100495.80;;;26.27;55.58
77572;BME280;67214;47.454;18.966;2023-06-22T06:51:22;100489.00;;;26.43;53.59
77572;BME280;67214;47.454;18.966;2023-06-22T06:53:50;100490.02;;;26.32;53.81
77572;BME280;67214;47.454;18.966;2023-06-22T06:56:18;100484.02;;;26.40;53.78
77572;BME280;67214;47.454;18.966;2023-06-22T06:58:45;100486.66;;;26.53;54.08
77572;BME280;67214;47.454;18.966;2023-06-22T07:01:13;100485.87;;;26.61;53.56
77572;BME280;67214;47.454;18.966;2023-06-22T07:03:40;100487.16;;;26.83;53.08
77572;BME280;67214;47.454;18.966;2023-06-22T07:06:09;100490.79;;;26.93;52.74
77572;BME280;67214;47.454;18.966;2023-06-22T07:08:36;100477.45;;;26.94;52.41
77572;BME280;67214;47.454;18.966;2023-06-22T07:11:05;100491.45;;;27.13;52.76
77572;BME280;67214;47.454;18.966;2023-06-22T07:13:33;100489.88;;;27.24;52.11
77572;BME280;67214;47.454;18.966;2023-06-22T07:16:00;100490.06;;;27.38;51.26
77572;BME280;67214;47.454;18.966;2023-06-22T07:18:28;100483.26;;;27.38;51.89
77572;BME280;67214;47.454;18.966;2023-06-22T07:20:56;100481.61;;;27.55;51.94
77572;BME280;67214;47.454;18.966;2023-06-22T07:23:23;100478.52;;;27.52;50.31
77572;BME280;67214;47.454;18.966;2023-06-22T07:25:50;100483.59;;;27.57;50.81
77572;BME280;67214;47.454;18.966;2023-06-22T07:28:18;100480.11;;;27.68;50.85
77572;BME280;67214;47.454;18.966;2023-06-22T07:30:46;100479.75;;;27.83;51.27
77572;BME280;67214;47.454;18.966;2023-06-22T07:33:14;100473.80;;;28.04;50.37
77572;BME280;67214;47.454;18.966;2023-06-22T07:35:41;100465.93;;;28.24;50.00
77572;BME280;67214;47.454;18.966;2023-06-22T07:38:09;100474.83;;;28.40;50.71
77572;BME280;67214;47.454;18.966;2023-06-22T07:40:36;100473.11;;;28.57;49.88
77572;BME280;67214;47.454;18.966;2023-06-22T07:43:04;100480.41;;;28.75;49.07
77572;BME280;67214;47.454;18.966;2023-06-22T07:45:31;100471.74;;;28.57;47.90
77572;BME280;67214;47.454;18.966;2023-06-22T07:48:01;100476.09;;;28.76;47.53
77572;BME280;67214;47.454;18.966;2023-06-22T07:50:29;100472.19;;;28.95;47.44
77572;BME280;67214;47.454;18.966;2023-06-22T07:52:57;100469.11;;;29.15;48.34
77572;BME280;67214;47.454;18.966;2023-06-22T07:55:24;100467.92;;;29.23;46.23
77572;BME280;67214;47.454;18.966;2023-06-22T07:57:52;100462.71;;;29.21;46.17
77572;BME280;67214;47.454;18.966;2023-06-22T08:00:20;100463.45;;;29.28;46.87
77572;BME280;67214;47.454;18.966;2023-06-22T08:02:47;100468.66;;;29.18;47.14
77572;BME280;67214;47.454;18.966;2023-06-22T08:05:16;100454.79;;;29.10;48.43
77572;BME280;67214;47.454;18.966;2023-06-22T08:07:43;100464.15;;;29.35;47.96
77572;BME280;67214;47.454;18.966;2023-06-22T08:10:12;100458.86;;;29.54;48.23
77572;BME280;67214;47.454;18.966;2023-06-22T08:12:40;100458.02;;;29.54;47.44
77572;BME280;67214;47.454;18.966;2023-06-22T08:15:08;100455.56;;;29.67;47.40
77572;BME280;67214;47.454;18.966;2023-06-22T08:17:37;100455.95;;;29.73;46.84
77572;BME280;67214;47.454;18.966;2023-06-22T08:20:06;100457.24;;;29.93;47.30
77572;BME280;67214;47.454;18.966;2023-06-22T08:22:43;100451.30;;;30.11;45.65
77572;BME280;67214;47.454;18.966;2023-06-22T08:25:08;100451.48;;;30.21;45.59
77572;BME280;67214;47.454;18.966;2023-06-22T08:27:36;100458.03;;;30.06;44.52
77572;BME280;67214;47.454;18.966;2023-06-22T08:30:06;100454.80;;;30.09;45.44
77572;BME280;67214;47.454;18.966;2023-06-22T08:32:34;100461.84;;;29.67;46.32
77572;BME280;67214;47.454;18.966;2023-06-22T08:35:01;100451.88;;;29.61;46.56
77572;BME280;67214;47.454;18.966;2023-06-22T08:37:29;100457.44;;;29.40;46.02
77572;BME280;67214;47.454;18.966;2023-06-22T08:40:03;100458.27;;;29.78;46.15
77572;BME280;67214;47.454;18.966;2023-06-22T08:42:37;100453.81;;;30.00;45.25
77572;BME280;67214;47.454;18.966;2023-06-22T08:45:06;100448.28;;;30.40;44.47
77572;BME280;67214;47.454;18.966;2023-06-22T08:47:33;100450.01;;;30.58;43.72
77572;BME280;67214;47.454;18.966;2023-06-22T08:50:01;100449.57;;;30.64;43.56
77572;BME280;67214;47.454;18.966;2023-06-22T08:52:32;100452.44;;;30.71;43.10
77572;BME280;67214;47.454;18.966;2023-06-22T08:54:59;100442.94;;;30.76;42.77
77572;BME280;67214;47.454;18.966;2023-06-22T08:57:29;100445.14;;;30.77;44.01
77572;BME280;67214;47.454;18.966;2023-06-22T08:59:59;100439.25;;;30.85;43.77
77572;BME280;67214;47.454;18.966;2023-06-22T09:02:27;100435.82;;;30.95;43.93
77572;BME280;67214;47.454;18.966;2023-06-22T09:04:58;100440.05;;;31.00;45.14
77572;BME280;67214;47.454;18.966;2023-06-22T09:07:25;100438.98;;;31.01;43.98
77572;BME280;67214;47.454;18.966;2023-06-22T09:09:53;100434.75;;;30.79;44.71
77572;BME280;67214;47.454;18.966;2023-06-22T09:12:21;100429.47;;;31.06;44.12
77572;BME280;67214;47.454;18.966;2023-06-22T09:14:51;100428.48;;;31.14;43.61
77572;BME280;67214;47.454;18.966;2023-06-22T09:17:18;100426.44;;;30.57;45.45
77572;BME280;67214;47.454;18.966;2023-06-22T09:19:46;100418.23;;;30.29;46.55
77572;BME280;67214;47.454;18.966;2023-06-22T09:22:14;100419.92;;;30.77;44.88
77572;BME280;67214;47.454;18.966;2023-06-22T09:24:42;100418.08;;;31.14;44.49
77572;BME280;67214;47.454;18.966;2023-06-22T09:27:09;100424.83;;;31.47;43.97
77572;BME280;67214;47.454;18.966;2023-06-22T09:29:36;100425.64;;;31.64;43.85
77572;BME280;67214;47.454;18.966;2023-06-22T09:32:04;100411.42;;;31.92;43.86
77572;BME280;67214;47.454;18.966;2023-06-22T09:34:32;100414.59;;;31.78;43.52
77572;BME280;67214;47.454;18.966;2023-06-22T09:36:59;100398.50;;;31.87;44.23
77572;BME280;67214;47.454;18.966;2023-06-22T09:39:30;100402.11;;;32.14;43.46
77572;BME280;67214;47.454;18.966;2023-06-22T09:41:59;100404.41;;;32.25;42.81
77572;BME280;67214;47.454;18.966;2023-06-22T09:44:27;100406.97;;;32.34;42.33
77572;BME280;67214;47.454;18.966;2023-06-22T09:46:54;100406.13;;;32.31;44.51
77572;BME280;67214;47.454;18.966;2023-06-22T09:49:22;100406.78;;;32.16;42.77
77572;BME280;67214;47.454;18.966;2023-06-22T09:51:49;100416.63;;;31.28;44.43
77572;BME280;67214;47.454;18.966;2023-06-22T09:54:17;100410.86;;;31.46;43.94
77572;BME280;67214;47.454;18.966;2023-06-22T09:56:44;100407.05;;;31.30;43.50
77572;BME280;67214;47.454;18.966;2023-06-22T09:59:12;100407.58;;;31.08;44.50
77572;BME280;67214;47.454;18.966;2023-06-22T10:01:39;100405.70;;;31.71;44.28
77572;BME280;67214;47.454;18.966;2023-06-22T10:04:06;100415.60;;;31.53;43.45
77572;BME280;67214;47.454;18.966;2023-06-22T10:06:34;100408.94;;;31.66;46.72
77572;BME280;67214;47.454;18.966;2023-06-22T10:09:01;100413.23;;;31.40;44.50
77572;BME280;67214;47.454;18.966;2023-06-22T10:11:29;100394.02;;;31.78;43.56
77572;BME280;67214;47.454;18.966;2023-06-22T10:13:57;100391.95;;;31.91;44.93
77572;BME280;67214;47.454;18.966;2023-06-22T10:16:32;100407.14;;;32.22;42.90
77572;BME280;67214;47.454;18.966;2023-06-22T10:19:02;100404.04;;;32.43;43.55
77572;BME280;67214;47.454;18.966;2023-06-22T10:21:29;100399.33;;;32.39;42.46
77572;BME280;67214;47.454;18.966;2023-06-22T10:23:57;100389.50;;;32.77;42.33
77572;BME280;67214;47.454;18.966;2023-06-22T10:26:27;100389.54;;;32.82;42.46
77572;BME280;67214;47.454;18.966;2023-06-22T10:28:55;100389.59;;;32.90;41.79
77572;BME280;67214;47.454;18.966;2023-06-22T10:31:22;100387.93;;;32.57;42.90
77572;BME280;67214;47.454;18.966;2023-06-22T10:33:50;100395.71;;;32.62;42.39
77572;BME280;67214;47.454;18.966;2023-06-22T10:36:17;100393.42;;;32.57;42.37
77572;BME280;67214;47.454;18.966;2023-06-22T10:38:45;100393.76;;;32.60;42.18
77572;BME280;67214;47.454;18.966;2023-06-22T10:41:13;100386.55;;;32.54;42.69
77572;BME280;67214;47.454;18.966;2023-06-22T10:43:41;100390.52;;;32.66;42.52
77572;BME280;67214;47.454;18.966;2023-06-22T10:46:08;100374.47;;;32.90;41.62
77572;BME280;67214;47.454;18.966;2023-06-22T10:48:36;100383.50;;;33.22;41.59
77572;BME280;67214;47.454;18.966;2023-06-22T10:51:03;100376.42;;;32.92;41.67
77572;BME280;67214;47.454;18.966;2023-06-22T10:53:31;100377.23;;;33.32;41.30
77572;BME280;67214;47.454;18.966;2023-06-22T10:55:59;100378.31;;;33.26;40.88
77572;BME280;67214;47.454;18.966;2023-06-22T10:58:26;100380.88;;;33.47;41.25
77572;BME280;67214;47.454;18.966;2023-06-22T11:00:54;100378.30;;;33.88;40.44
77572;BME280;67214;47.454;18.966;2023-06-22T11:03:21;100375.69;;;33.58;40.89
77572;BME280;67214;47.454;18.966;2023-06-22T11:05:49;100385.34;;;33.09;41.66
77572;BME280;67214;47.454;18.966;2023-06-22T11:08:16;100376.72;;;33.37;40.11
77572;BME280;67214;47.454;18.966;2023-06-22T11:10:44;100373.84;;;32.78;40.99
77572;BME280;67214;47.454;18.966;2023-06-22T11:13:11;100375.57;;;33.28;39.56
77572;BME280;67214;47.454;18.966;2023-06-22T11:15:39;100373.22;;;33.10;39.53
77572;BME280;67214;47.454;18.966;2023-06-22T11:18:06;100351.16;;;33.42;42.07
77572;BME280;67214;47.454;18.966;2023-06-22T11:20:34;100366.75;;;33.96;40.13
77572;BME280;67214;47.454;18.966;2023-06-22T11:23:03;100370.34;;;34.04;39.39
77572;BME280;67214;47.454;18.966;2023-06-22T11:25:32;100362.31;;;33.75;39.80
77572;BME280;67214;47.454;18.966;2023-06-22T11:28:05;100352.45;;;34.04;39.45
77572;BME280;67214;47.454;18.966;2023-06-22T11:30:32;100349.45;;;34.11;38.52
77572;BME280;67214;47.454;18.966;2023-06-22T11:33:00;100359.06;;;33.98;38.75
77572;BME280;67214;47.454;18.966;2023-06-22T11:35:27;100346.67;;;33.98;38.67
77572;BME280;67214;47.454;18.966;2023-06-22T11:37:55;100345.37;;;34.66;38.63
77572;BME280;67214;47.454;18.966;2023-06-22T11:40:22;100349.73;;;34.95;37.99
77572;BME280;67214;47.454;18.966;2023-06-22T11:42:50;100345.91;;;34.76;37.48
77572;BME280;67214;47.454;18.966;2023-06-22T11:45:18;100349.98;;;34.98;38.03
77572;BME280;67214;47.454;18.966;2023-06-22T11:47:47;100345.24;;;35.27;36.89
77572;BME280;67214;47.454;18.966;2023-06-22T11:50:14;100340.30;;;35.19;36.46
77572;BME280;67214;47.454;18.966;2023-06-22T11:52:42;100338.22;;;35.57;35.60
77572;BME280;67214;47.454;18.966;2023-06-22T11:55:09;100335.59;;;35.22;36.33
77572;BME280;67214;47.454;18.966;2023-06-22T11:57:38;100336.45;;;35.07;35.77
77572;BME280;67214;47.454;18.966;2023-06-22T12:00:07;100339.44;;;35.33;37.60
77572;BME280;67214;47.454;18.966;2023-06-22T12:02:44;100344.04;;;35.53;35.56
77572;BME280;67214;47.454;18.966;2023-06-22T12:05:12;100334.34;;;35.61;38.38
77572;BME280;67214;47.454;18.966;2023-06-22T12:07:39;100337.66;;;35.63;36.03
77572;BME280;67214;47.454;18.966;2023-06-22T12:10:07;100332.29;;;35.84;37.03
77572;BME280;67214;47.454;18.966;2023-06-22T12:12:35;100316.83;;;36.24;36.78
77572;BME280;67214;47.454;18.966;2023-06-22T12:15:02;100328.53;;;36.48;34.23
77572;BME280;67214;47.454;18.966;2023-06-22T12:17:33;100322.44;;;36.79;35.06
77572;BME280;67214;47.454;18.966;2023-06-22T12:20:02;100312.80;;;36.74;34.05
77572;BME280;67214;47.454;18.966;2023-06-22T12:22:35;100310.29;;;36.47;35.46
77572;BME280;67214;47.454;18.966;2023-06-22T12:25:04;100314.20;;;36.41;35.07
77572;BME280;67214;47.454;18.966;2023-06-22T12:27:32;100316.25;;;36.61;35.05
77572;BME280;67214;47.454;18.966;2023-06-22T12:30:00;100309.47;;;36.12;35.16
77572;BME280;67214;47.454;18.966;2023-06-22T12:32:27;100306.46;;;36.04;35.46
77572;BME280;67214;47.454;18.966;2023-06-22T12:34:55;100307.98;;;35.83;34.98
77572;BME280;67214;47.454;18.966;2023-06-22T12:37:23;100299.62;;;35.96;34.58
77572;BME280;67214;47.454;18.966;2023-06-22T12:39:51;100291.52;;;36.07;34.73
77572;BME280;67214;47.454;18.966;2023-06-22T12:42:18;100301.31;;;36.31;34.93
77572;BME280;67214;47.454;18.966;2023-06-22T12:44:47;100295.28;;;36.55;34.01
77572;BME280;67214;47.454;18.966;2023-06-22T12:47:14;100295.42;;;36.71;32.98
77572;BME280;67214;47.454;18.966;2023-06-22T12:49:42;100297.77;;;36.59;34.13